Monday, September 26, 2016, 6:25 PM EDT

KUNV, State College, University Park Airport

Location: State College, PA, United States Lat: 40.85
Local Time: 6:25 PM EDT (22:25 GMT) Lon: -77.85
Time Zone: US/Eastern Elev: 1240 ft

Show me the last for .
Show Decoded

2016-09-26 17:53 METAR KUNV 262153Z 16008KT 10SM -DZ OVC012 16/15 A2996 =
2016-09-26 16:53 METAR KUNV 262053Z COR 17008KT 10SM OVC016 17/14 A2998 =
2016-09-26 15:53 METAR KUNV 261953Z 17008KT 10SM OVC020 18/14 A2997 =
2016-09-26 14:53 METAR KUNV 261853Z 17008KT 10SM OVC020 18/14 A2998 =
2016-09-26 13:53 METAR KUNV 261753Z 19008KT 10SM OVC020 19/14 A3003 =
2016-09-26 12:53 METAR KUNV 261653Z 17008KT 10SM OVC022 18/13 A3004 =
2016-09-26 11:53 METAR KUNV 261553Z 21007KT 10SM OVC020 17/12 A3007 =
2016-09-26 10:53 METAR KUNV 261453Z 21010KT 10SM OVC020 16/12 A3008 =
2016-09-26 09:53 METAR KUNV 261353Z 00000KT 10SM OVC018 13/10 A3008 =
2016-09-26 08:53 METAR KUNV 261253Z 00000KT 10SM OVC020 11/03 A3010 =
2016-09-26 07:53 METAR KUNV 261153Z 00000KT 10SM OVC018 10/08 A3011 =
2016-09-26 06:53 METAR KUNV 261053Z 00000KT 10SM OVC018 09/08 A3011 =
2016-09-26 05:53 METAR KUNV 260953Z 00000KT 10SM BKN018 BKN060 09/07 A3011 =
2016-09-26 05:35 METAR KUNV 260935Z AUTO 00000KT 10SM SCT018 SCT065 SCT070 08/07 A3011 RMK AO2
                 T00820065 =
2016-09-26 05:15 METAR KUNV 260915Z AUTO 00000KT 10SM CLR 08/07 A3011 RMK AO2 T00820065 =
2016-09-26 04:55 METAR KUNV 260855Z AUTO 00000KT 10SM CLR 07/06 A3012 RMK AO2 T00710063 =
2016-09-26 04:35 METAR KUNV 260835Z AUTO 00000KT 10SM CLR 07/06 A3012 RMK AO2 T00700062 =
2016-09-26 04:15 METAR KUNV 260815Z AUTO 00000KT 10SM CLR 09/07 A3012 RMK AO2 T00860065 =
2016-09-26 03:55 METAR KUNV 260755Z AUTO 00000KT 10SM CLR 09/07 A3012 RMK AO2 T00890065 =
2016-09-26 03:35 METAR KUNV 260735Z AUTO 00000KT 10SM CLR 08/06 A3012 RMK AO2 T00810063 =
2016-09-26 03:10 METAR KUNV 260710Z AUTO 00000KT 10SM CLR 09/07 A3013 RMK AO2 T00880065 =
2016-09-26 02:55 METAR KUNV 260655Z AUTO 00000KT 10SM CLR 08/06 A3013 RMK AO2 T00790064 =
2016-09-26 02:35 METAR KUNV 260635Z AUTO 00000KT 10SM CLR 08/07 A3014 RMK AO2 T00820065 =
2016-09-26 02:15 METAR KUNV 260615Z AUTO 00000KT 10SM CLR 09/07 A3015 RMK AO2 T00940066 =
2016-09-26 01:55 METAR KUNV 260555Z AUTO 00000KT 10SM CLR 09/06 A3015 RMK AO2 T00900063 10161
                 20090 =
2016-09-26 01:35 METAR KUNV 260535Z AUTO 00000KT 10SM SCT065 10/06 A3015 RMK AO2 T00950060 =
2016-09-26 01:15 METAR KUNV 260515Z AUTO 00000KT 10SM CLR 10/06 A3016 RMK AO2 T00960061 =
2016-09-26 00:55 METAR KUNV 260455Z AUTO 00000KT 10SM CLR 10/06 A3016 RMK AO2 T01030060 =
2016-09-26 00:35 METAR KUNV 260435Z AUTO 00000KT 10SM CLR 10/06 A3016 RMK AO2 T01040058 =
2016-09-26 00:15 METAR KUNV 260415Z AUTO 00000KT 10SM SCT100 SCT120 12/06 A3016 RMK AO2 T01210059
                 =
2016-09-25 23:55 METAR KUNV 260355Z AUTO 00000KT 10SM SCT100 12/06 A3016 RMK AO2 T01220055
                 402040055 =
2016-09-25 23:35 METAR KUNV 260335Z AUTO 00000KT 10SM CLR 13/06 A3016 RMK AO2 T01260058 =
2016-09-25 23:15 METAR KUNV 260315Z AUTO 04003KT 10SM SCT080 15/05 A3017 RMK AO2 T01460050 =
2016-09-25 22:55 METAR KUNV 260255Z AUTO 00000KT 10SM SCT070 SCT080 SCT100 14/05 A3016 RMK AO2
                 T01400054 =
2016-09-25 22:35 METAR KUNV 260235Z AUTO 00000KT 10SM SCT060 SCT070 SCT080 15/06 A3017 RMK AO2
                 T01450055 =
2016-09-25 22:15 METAR KUNV 260215Z AUTO 00000KT 10SM CLR 14/06 A3017 RMK AO2 T01410056 =
2016-09-25 21:55 METAR KUNV 260155Z AUTO 00000KT 10SM CLR 14/06 A3017 RMK AO2 T01350058 =
2016-09-25 20:53 METAR KUNV 260053Z 00000KT 10SM SKC 14/05 A3017 =
2016-09-25 19:53 METAR KUNV 252353Z 00000KT 10SM SKC 16/03 A3015 =
2016-09-25 18:53 METAR KUNV 252253Z 00000KT 10SM SKC 17/04 A3015 =

Support USWX by starting your Amazon purchase here.